Time;durP1;ratioP1;P1;durP2;ratioP2;P2;SDS_P1;SDS_P2;PMS_P1;PMS_P2;Temp;Humidity;BMP_temperature;BMP_pressure;BME280_temperature;BME280_humidity;BME280_pressure;Samples;Min_cycle;Max_cycle;Signal;HPM_P1;HPM_P2
2023/11/01 00:01:22;;;;;;;35.88;32.08;;;;;;;;;;5073134;28;20044;-59
2023/11/01 00:03:48;;;;;;;36.22;32.50;;;;;;;;;;5076058;28;20025;-59
2023/11/01 00:06:14;;;;;;;34.63;30.95;;;;;;;;;;5075096;28;20031;-57
2023/11/01 00:08:40;;;;;;;37.60;31.48;;;;;;;;;;5075290;28;20028;-60
2023/11/01 00:11:06;;;;;;;34.05;30.55;;;;;;;;;;5075903;28;20103;-58
2023/11/01 00:13:33;;;;;;;36.15;30.17;;;;;;;;;;5075656;28;20020;-59
2023/11/01 00:15:59;;;;;;;35.10;31.30;;;;;;;;;;5057395;28;20478;-60
2023/11/01 00:18:26;;;;;;;33.97;30.38;;;;;;;;;;5075745;28;20035;-59
2023/11/01 00:20:52;;;;;;;35.22;29.33;;;;;;;;;;5075178;28;20024;-59
2023/11/01 00:23:18;;;;;;;33.35;30.05;;;;;;;;;;5075118;28;20088;-61
2023/11/01 00:25:44;;;;;;;32.90;29.42;;;;;;;;;;5056785;28;20063;-58
2023/11/01 00:28:10;;;;;;;33.08;29.88;;;;;;;;;;5075702;28;20146;-59
2023/11/01 00:30:36;;;;;;;34.40;30.85;;;;;;;;;;5075208;28;20095;-57
2023/11/01 00:33:02;;;;;;;34.78;29.17;;;;;;;;;;5075110;28;20025;-60
2023/11/01 00:35:28;;;;;;;32.05;28.67;;;;;;;;;;5057055;28;20020;-59
2023/11/01 00:37:54;;;;;;;32.17;28.60;;;;;;;;;;5075424;28;20512;-60
2023/11/01 00:40:20;;;;;;;32.40;29.00;;;;;;;;;;5075006;28;20073;-59
2023/11/01 00:42:46;;;;;;;31.27;28.08;;;;;;;;;;5074988;28;20040;-60
2023/11/01 00:45:12;;;;;;;31.77;27.75;;;;;;;;;;5075054;28;20032;-60
2023/11/01 00:47:38;;;;;;;30.52;27.45;;;;;;;;;;5074735;28;20538;-60
2023/11/01 00:50:05;;;;;;;30.08;27.08;;;;;;;;;;5073897;28;20032;-59
2023/11/01 00:52:32;;;;;;;30.98;27.90;;;;;;;;;;5074327;28;20126;-59
2023/11/01 00:54:58;;;;;;;31.65;27.38;;;;;;;;;;5073473;28;20398;-58
2023/11/01 00:57:24;;;;;;;29.30;26.33;;;;;;;;;;5074519;28;20052;-58
2023/11/01 00:59:51;;;;;;;34.65;27.63;;;;;;;;;;5073774;28;20021;-60
2023/11/01 01:02:17;;;;;;;30.02;27.23;;;;;;;;;;5056397;28;20533;-58
2023/11/01 01:04:45;;;;;;;29.80;26.77;;;;;;;;;;5073708;28;20090;-58
2023/11/01 01:07:11;;;;;;;33.25;26.88;;;;;;;;;;5073682;28;20556;-58
2023/11/01 01:09:37;;;;;;;30.85;25.85;;;;;;;;;;5073332;28;20024;-58
2023/11/01 01:12:04;;;;;;;29.45;26.40;;;;;;;;;;5074158;28;20070;-59
2023/11/01 01:14:30;;;;;;;31.30;27.90;;;;;;;;;;5073948;28;20036;-60
2023/11/01 01:16:56;;;;;;;30.77;27.48;;;;;;;;;;5055732;28;20025;-59
2023/11/01 01:19:22;;;;;;;27.92;25.02;;;;;;;;;;5073090;28;20055;-60
2023/11/01 01:21:48;;;;;;;28.55;25.58;;;;;;;;;;5073835;28;20044;-57
2023/11/01 01:24:14;;;;;;;28.83;25.92;;;;;;;;;;5073712;28;20034;-58
2023/11/01 01:26:40;;;;;;;30.10;26.65;;;;;;;;;;5073804;28;20044;-59
2023/11/01 01:29:06;;;;;;;28.90;25.92;;;;;;;;;;5073463;28;20020;-61
2023/11/01 01:31:33;;;;;;;33.30;26.00;;;;;;;;;;5073484;28;20086;-58
2023/11/01 01:33:59;;;;;;;29.60;26.38;;;;;;;;;;5074050;28;20099;-60
2023/11/01 01:36:26;;;;;;;28.42;25.48;;;;;;;;;;5074424;28;20024;-60
2023/11/01 01:38:52;;;;;;;29.08;26.13;;;;;;;;;;5073338;28;20025;-60
2023/11/01 01:41:18;;;;;;;31.13;25.95;;;;;;;;;;5073077;28;20033;-60
2023/11/01 01:43:44;;;;;;;30.10;26.52;;;;;;;;;;5051455;28;20035;-59
2023/11/01 01:46:12;;;;;;;29.10;25.25;;;;;;;;;;5069807;28;20427;-58
2023/11/01 01:48:39;;;;;;;30.55;25.38;;;;;;;;;;5046028;28;20025;-59
2023/11/01 01:51:05;;;;;;;28.05;24.50;;;;;;;;;;5052116;28;20036;-60
2023/11/01 01:53:32;;;;;;;28.15;25.17;;;;;;;;;;5053450;28;20017;-60
2023/11/01 01:55:59;;;;;;;28.02;24.85;;;;;;;;;;5053680;28;20017;-58
2023/11/01 01:58:28;;;;;;;27.45;24.83;;;;;;;;;;5052843;28;20032;-60
2023/11/01 02:00:56;;;;;;;28.15;25.33;;;;;;;;;;5052997;28;20035;-60
2023/11/01 02:03:22;;;;;;;27.15;24.55;;;;;;;;;;5053152;28;20025;-57
2023/11/01 02:05:48;;;;;;;27.02;23.65;;;;;;;;;;5035096;28;20388;-58
2023/11/01 02:08:14;;;;;;;26.83;24.00;;;;;;;;;;5051954;28;20112;-60
2023/11/01 02:10:41;;;;;;;27.20;24.48;;;;;;;;;;5034871;28;20025;-58
2023/11/01 02:13:11;;;;;;;27.77;23.77;;;;;;;;;;5052693;28;20086;-58
2023/11/01 02:15:37;;;;;;;29.77;24.25;;;;;;;;;;5064480;28;20020;-59
2023/11/01 02:18:04;;;;;;;26.83;23.92;;;;;;;;;;5072942;28;20100;-60
2023/11/01 02:20:32;;;;;;;30.23;24.02;;;;;;;;;;5072780;28;20112;-60
2023/11/01 02:22:58;;;;;;;25.75;22.98;;;;;;;;;;5072551;28;20024;-60
2023/11/01 02:25:24;;;;;;;26.65;23.77;;;;;;;;;;5072748;28;20093;-60
2023/11/01 02:27:50;;;;;;;28.77;23.85;;;;;;;;;;5053855;28;20076;-60
2023/11/01 02:30:16;;;;;;;28.05;23.15;;;;;;;;;;5071292;28;20025;-60
2023/11/01 02:32:47;;;;;;;26.23;23.52;;;;;;;;;;5072172;28;20040;-61
2023/11/01 02:35:14;;;;;;;28.05;23.40;;;;;;;;;;5053648;28;20029;-59
2023/11/01 02:37:40;;;;;;;29.15;23.40;;;;;;;;;;5071367;28;20051;-60
2023/11/01 02:40:09;;;;;;;25.90;23.17;;;;;;;;;;5072188;28;20066;-59
2023/11/01 02:42:35;;;;;;;28.55;23.80;;;;;;;;;;5073072;28;20016;-59
2023/11/01 02:45:01;;;;;;;26.20;23.50;;;;;;;;;;5072666;28;20051;-59
2023/11/01 02:47:27;;;;;;;25.63;22.75;;;;;;;;;;5071924;28;20023;-59
2023/11/01 02:49:53;;;;;;;26.02;22.60;;;;;;;;;;5072009;28;20024;-59
2023/11/01 02:52:19;;;;;;;24.70;22.10;;;;;;;;;;5072598;28;20023;-59
2023/11/01 02:54:45;;;;;;;27.58;22.40;;;;;;;;;;5054369;28;20537;-59
2023/11/01 02:57:11;;;;;;;25.65;23.02;;;;;;;;;;5071725;28;20031;-59
2023/11/01 02:59:37;;;;;;;25.55;22.67;;;;;;;;;;5071233;28;20016;-58
2023/11/01 03:02:03;;;;;;;25.52;22.17;;;;;;;;;;5071748;28;20023;-60
2023/11/01 03:04:29;;;;;;;24.63;22.02;;;;;;;;;;5063682;28;20084;-59
2023/11/01 03:06:55;;;;;;;25.05;22.60;;;;;;;;;;5071177;28;20048;-59
2023/11/01 03:09:22;;;;;;;25.00;22.40;;;;;;;;;;5051166;28;20036;-58
2023/11/01 03:11:48;;;;;;;25.48;22.52;;;;;;;;;;5051073;28;20531;-60
2023/11/01 03:14:14;;;;;;;22.58;20.17;;;;;;;;;;5050420;28;20120;-59
2023/11/01 03:16:40;;;;;;;22.17;19.88;;;;;;;;;;5063262;28;20063;-59
2023/11/01 03:19:07;;;;;;;26.15;20.27;;;;;;;;;;5070389;28;20016;-58
2023/11/01 03:21:32;;;;;;;22.10;19.50;;;;;;;;;;5059629;28;20029;-58
2023/11/01 03:23:58;;;;;;;22.92;19.58;;;;;;;;;;5051102;28;20078;-58
2023/11/01 03:26:25;;;;;;;24.33;19.40;;;;;;;;;;5050975;28;20625;-59
2023/11/01 03:28:50;;;;;;;24.52;19.70;;;;;;;;;;5050600;28;20021;-59
2023/11/01 03:31:18;;;;;;;21.83;19.63;;;;;;;;;;5059314;28;20037;-59
2023/11/01 03:33:44;;;;;;;21.77;19.57;;;;;;;;;;5051131;28;20025;-59
2023/11/01 03:36:11;;;;;;;21.20;18.83;;;;;;;;;;5051526;28;20029;-60
2023/11/01 03:38:37;;;;;;;21.98;19.35;;;;;;;;;;5051087;28;20100;-59
2023/11/01 03:41:03;;;;;;;21.45;19.23;;;;;;;;;;5051024;28;20025;-58
2023/11/01 03:43:29;;;;;;;21.48;19.17;;;;;;;;;;5051595;28;20060;-60
2023/11/01 03:45:55;;;;;;;22.23;19.83;;;;;;;;;;5034181;28;20065;-59
2023/11/01 03:48:21;;;;;;;23.67;19.10;;;;;;;;;;5051725;28;20085;-60
2023/11/01 03:50:47;;;;;;;21.75;19.40;;;;;;;;;;5051009;28;20439;-59
2023/11/01 03:53:13;;;;;;;21.52;18.83;;;;;;;;;;5051895;28;20062;-60
2023/11/01 03:55:39;;;;;;;22.08;19.35;;;;;;;;;;5052187;28;20471;-60
2023/11/01 03:58:05;;;;;;;20.35;18.25;;;;;;;;;;5051708;28;20110;-59
2023/11/01 04:00:31;;;;;;;21.42;18.63;;;;;;;;;;5051429;28;20036;-60
2023/11/01 04:02:57;;;;;;;20.63;18.42;;;;;;;;;;5051816;28;20049;-60
2023/11/01 04:05:23;;;;;;;21.63;19.08;;;;;;;;;;5051405;28;20582;-60
2023/11/01 04:07:49;;;;;;;22.10;18.25;;;;;;;;;;5051433;28;20032;-59
2023/11/01 04:10:15;;;;;;;21.73;19.48;;;;;;;;;;5051392;28;20021;-59
2023/11/01 04:12:41;;;;;;;22.33;19.77;;;;;;;;;;5044752;28;20105;-61
2023/11/01 04:15:12;;;;;;;23.40;18.55;;;;;;;;;;5046996;28;20695;-58
2023/11/01 04:17:38;;;;;;;20.58;18.38;;;;;;;;;;5033449;28;20525;-59
2023/11/01 04:20:08;;;;;;;23.25;19.27;;;;;;;;;;5051112;28;20479;-59
2023/11/01 04:22:35;;;;;;;26.08;19.23;;;;;;;;;;5050981;28;20024;-57
2023/11/01 04:25:01;;;;;;;27.00;18.60;;;;;;;;;;5051558;28;20028;-59
2023/11/01 04:27:27;;;;;;;26.05;19.10;;;;;;;;;;5050880;28;20036;-61
2023/11/01 04:29:54;;;;;;;22.05;19.45;;;;;;;;;;5052189;28;20021;-60
2023/11/01 04:32:28;;;;;;;22.15;19.75;;;;;;;;;;5054625;28;20184;-59
2023/11/01 04:34:55;;;;;;;20.77;18.67;;;;;;;;;;5052745;28;20064;-59
2023/11/01 04:37:23;;;;;;;21.45;18.25;;;;;;;;;;5052648;28;20482;-59
2023/11/01 04:39:49;;;;;;;21.90;19.63;;;;;;;;;;5054663;28;20037;-60
2023/11/01 04:42:15;;;;;;;22.88;19.38;;;;;;;;;;5054861;28;20019;-60
2023/11/01 04:44:42;;;;;;;21.85;18.98;;;;;;;;;;5054686;28;20514;-61
2023/11/01 04:47:08;;;;;;;21.70;18.58;;;;;;;;;;5054563;28;20025;-59
2023/11/01 04:49:34;;;;;;;21.48;19.38;;;;;;;;;;5034918;28;20029;-59
2023/11/01 04:52:00;;;;;;;21.05;18.80;;;;;;;;;;5053367;28;20455;-59
2023/11/01 04:54:26;;;;;;;21.70;18.92;;;;;;;;;;5053793;28;20033;-61
2023/11/01 04:56:52;;;;;;;20.65;18.50;;;;;;;;;;5041042;28;20166;-60
2023/11/01 04:59:18;;;;;;;21.13;18.92;;;;;;;;;;5055786;28;20029;-58
2023/11/01 05:01:47;;;;;;;23.85;19.40;;;;;;;;;;5055521;28;20445;-59
2023/11/01 05:04:13;;;;;;;20.85;18.63;;;;;;;;;;5073623;28;20073;-60
2023/11/01 05:06:39;;;;;;;21.13;18.92;;;;;;;;;;5044509;28;20104;-58
2023/11/01 05:09:05;;;;;;;20.48;18.45;;;;;;;;;;5053346;28;20032;-59
2023/11/01 05:11:31;;;;;;;20.92;18.60;;;;;;;;;;5053408;28;20063;-60
2023/11/01 05:13:57;;;;;;;19.88;17.75;;;;;;;;;;5053580;28;20021;-60
2023/11/01 05:16:23;;;;;;;20.08;17.98;;;;;;;;;;5054672;28;20024;-58
2023/11/01 05:18:49;;;;;;;22.05;17.90;;;;;;;;;;5054450;28;20503;-59
2023/11/01 05:21:16;;;;;;;21.23;18.92;;;;;;;;;;5054950;28;20025;-61
2023/11/01 05:23:42;;;;;;;25.30;18.27;;;;;;;;;;5054067;28;20017;-60
2023/11/01 05:26:14;;;;;;;21.35;19.02;;;;;;;;;;5054049;28;20029;-61
2023/11/01 05:28:40;;;;;;;20.80;18.60;;;;;;;;;;5035646;28;20091;-59
2023/11/01 05:31:06;;;;;;;21.23;19.08;;;;;;;;;;5053573;28;20474;-57
2023/11/01 05:33:32;;;;;;;21.17;19.08;;;;;;;;;;5053713;28;20029;-60
2023/11/01 05:35:58;;;;;;;22.17;19.85;;;;;;;;;;5054486;28;20030;-60
2023/11/01 05:38:27;;;;;;;21.42;19.23;;;;;;;;;;5054272;28;20020;-58
2023/11/01 05:40:53;;;;;;;22.05;19.73;;;;;;;;;;5053340;28;20025;-59
2023/11/01 05:43:19;;;;;;;21.33;19.13;;;;;;;;;;5053604;28;20112;-58
2023/11/01 05:45:45;;;;;;;21.15;19.05;;;;;;;;;;5054150;28;20024;-58
2023/11/01 05:48:11;;;;;;;22.08;19.90;;;;;;;;;;5053982;28;20055;-59
2023/11/01 05:50:40;;;;;;;21.25;19.15;;;;;;;;;;5073311;28;20033;-59
2023/11/01 05:53:09;;;;;;;;;;;;;;;;;;5074941;28;20144;-58
2023/11/01 05:55:36;;;;;;;;;;;;;;;;;;5056880;28;19905;-60
2023/11/01 05:58:02;;;;;;;21.98;19.88;;;;;;;;;;5049402;28;19977;-59
2023/11/01 06:00:28;;;;;;;23.17;20.77;;;;;;;;;;5056590;28;20017;-57
2023/11/01 06:02:54;;;;;;;22.90;20.67;;;;;;;;;;5074973;28;20096;-60
2023/11/01 06:05:22;;;;;;;22.58;20.38;;;;;;;;;;5074174;28;20486;-59
2023/11/01 06:07:48;;;;;;;22.30;20.20;;;;;;;;;;5074092;28;20056;-59
2023/11/01 06:10:14;;;;;;;22.67;20.52;;;;;;;;;;5072408;28;20020;-59
2023/11/01 06:12:40;;;;;;;22.83;20.63;;;;;;;;;;5075049;28;20524;-58
2023/11/01 06:15:10;;;;;;;23.25;20.70;;;;;;;;;;5074835;28;20027;-59
2023/11/01 06:17:36;;;;;;;23.08;20.90;;;;;;;;;;5074936;28;20021;-59
2023/11/01 06:20:02;;;;;;;23.00;20.70;;;;;;;;;;5075059;28;20055;-59
2023/11/01 06:22:28;;;;;;;22.98;20.77;;;;;;;;;;5074103;28;20016;-58
2023/11/01 06:24:54;;;;;;;24.17;21.70;;;;;;;;;;5074825;28;20500;-59
2023/11/01 06:27:20;;;;;;;24.05;21.35;;;;;;;;;;5074507;28;20028;-57
2023/11/01 06:29:46;;;;;;;23.77;21.58;;;;;;;;;;5057469;28;20057;-59
2023/11/01 06:32:12;;;;;;;24.20;21.90;;;;;;;;;;5074666;28;20104;-57
2023/11/01 06:34:38;;;;;;;24.83;22.42;;;;;;;;;;5073847;28;20506;-60
2023/11/01 06:37:05;;;;;;;24.60;22.10;;;;;;;;;;5073760;28;20021;-59
2023/11/01 06:39:31;;;;;;;24.65;22.20;;;;;;;;;;5073721;28;20077;-60
2023/11/01 06:41:57;;;;;;;26.05;23.48;;;;;;;;;;5074308;28;20025;-58
2023/11/01 06:44:24;;;;;;;26.30;23.52;;;;;;;;;;5074336;28;20046;-59
2023/11/01 06:46:50;;;;;;;24.90;22.50;;;;;;;;;;5073209;28;20363;-57
2023/11/01 06:49:16;;;;;;;24.75;22.35;;;;;;;;;;5074715;28;20036;-57
2023/11/01 06:51:42;;;;;;;26.05;23.35;;;;;;;;;;5073743;28;20092;-55
2023/11/01 06:54:08;;;;;;;25.75;23.15;;;;;;;;;;5073787;28;20033;-61
2023/11/01 06:56:34;;;;;;;26.08;23.58;;;;;;;;;;5055456;28;20075;-59
2023/11/01 06:59:01;;;;;;;26.20;23.70;;;;;;;;;;5074708;28;20028;-58
2023/11/01 07:01:26;;;;;;;26.58;23.75;;;;;;;;;;5075152;28;20024;-60
2023/11/01 07:03:52;;;;;;;27.80;24.88;;;;;;;;;;5075091;28;20494;-59
2023/11/01 07:06:18;;;;;;;26.70;24.08;;;;;;;;;;5076008;28;20032;-59
2023/11/01 07:08:44;;;;;;;27.17;24.60;;;;;;;;;;5074867;28;20029;-59
2023/11/01 07:11:11;;;;;;;26.65;24.10;;;;;;;;;;5074548;28;20111;-60
2023/11/01 07:13:37;;;;;;;26.65;23.95;;;;;;;;;;5075271;28;20013;-60
2023/11/01 07:16:05;;;;;;;27.10;24.60;;;;;;;;;;5074733;28;20029;-60
2023/11/01 07:18:31;;;;;;;26.63;24.03;;;;;;;;;;5074615;28;20020;-59
2023/11/01 07:20:57;;;;;;;26.42;23.92;;;;;;;;;;5074595;28;20028;-60
2023/11/01 07:23:23;;;;;;;26.10;23.55;;;;;;;;;;5074244;28;20033;-60
2023/11/01 07:25:49;;;;;;;26.42;23.65;;;;;;;;;;5074883;28;20017;-58
2023/11/01 07:28:15;;;;;;;26.42;23.40;;;;;;;;;;5075379;28;20016;-60
2023/11/01 07:30:42;;;;;;;26.10;23.60;;;;;;;;;;5075970;28;20017;-59
2023/11/01 07:33:08;;;;;;;25.48;22.98;;;;;;;;;;5076099;28;20023;-59
2023/11/01 07:35:34;;;;;;;25.80;23.30;;;;;;;;;;5075306;28;20104;-59
2023/11/01 07:38:00;;;;;;;27.30;23.98;;;;;;;;;;5075300;28;20059;-59
2023/11/01 07:40:26;;;;;;;25.50;23.00;;;;;;;;;;5056985;28;20024;-60
2023/11/01 07:42:52;;;;;;;25.23;22.88;;;;;;;;;;5075247;28;20035;-60
2023/11/01 07:45:18;;;;;;;26.35;23.63;;;;;;;;;;5071703;28;20013;-58
2023/11/01 07:47:44;;;;;;;25.40;23.00;;;;;;;;;;5068413;28;20401;-50
2023/11/01 07:50:13;;;;;;;25.48;23.02;;;;;;;;;;5067934;28;20060;-53
2023/11/01 07:52:39;;;;;;;27.55;24.67;;;;;;;;;;5054148;28;20032;-52
2023/11/01 07:55:05;;;;;;;26.40;23.65;;;;;;;;;;5054989;28;20031;-52
2023/11/01 07:57:32;;;;;;;26.88;24.30;;;;;;;;;;5050574;28;20107;-50
2023/11/01 07:59:58;;;;;;;29.30;25.08;;;;;;;;;;5047742;28;20525;-50
2023/11/01 08:02:24;;;;;;;27.73;25.02;;;;;;;;;;5065968;28;20090;-53
2023/11/01 08:04:50;;;;;;;26.08;23.48;;;;;;;;;;5053434;28;20482;-49
2023/11/01 08:07:16;;;;;;;27.95;24.30;;;;;;;;;;5071891;28;20047;-53
2023/11/01 08:09:42;;;;;;;26.00;23.20;;;;;;;;;;5059473;28;20107;-51
2023/11/01 08:12:09;;;;;;;24.73;22.42;;;;;;;;;;5051955;28;20069;-51
2023/11/01 08:14:35;;;;;;;27.65;22.85;;;;;;;;;;5051717;28;20040;-50
2023/11/01 08:17:01;;;;;;;24.25;21.10;;;;;;;;;;5051846;28;20028;-49
2023/11/01 08:19:27;;;;;;;23.80;21.30;;;;;;;;;;5051365;28;20024;-50
2023/11/01 08:21:53;;;;;;;25.48;21.85;;;;;;;;;;5051779;28;20087;-48
2023/11/01 08:24:19;;;;;;;22.77;20.60;;;;;;;;;;5033608;28;20032;-48
2023/11/01 08:26:45;;;;;;;23.67;21.20;;;;;;;;;;5049863;28;20117;-49
2023/11/01 08:29:11;;;;;;;24.48;21.90;;;;;;;;;;5049364;28;20037;-50
2023/11/01 08:31:37;;;;;;;24.23;21.85;;;;;;;;;;5051189;28;20013;-53
2023/11/01 08:34:03;;;;;;;24.80;22.23;;;;;;;;;;5051360;28;20021;-47
2023/11/01 08:36:29;;;;;;;22.90;20.70;;;;;;;;;;5051274;28;20468;-52
2023/11/01 08:38:55;;;;;;;23.17;20.90;;;;;;;;;;5051448;28;20024;-50
2023/11/01 08:41:22;;;;;;;24.63;22.30;;;;;;;;;;5051208;28;20059;-49
2023/11/01 08:43:48;;;;;;;24.17;21.52;;;;;;;;;;5051237;28;20020;-53
2023/11/01 08:46:15;;;;;;;21.73;19.40;;;;;;;;;;5046385;28;20026;-55
2023/11/01 08:48:41;;;;;;;22.55;19.75;;;;;;;;;;5047226;28;20089;-53
2023/11/01 08:51:10;;;;;;;23.85;20.02;;;;;;;;;;5066054;28;20508;-52
2023/11/01 08:53:39;;;;;;;22.30;19.90;;;;;;;;;;5065195;28;20024;-52
2023/11/01 08:56:05;;;;;;;24.83;19.90;;;;;;;;;;5070930;28;20108;-46
2023/11/01 08:58:31;;;;;;;22.00;19.85;;;;;;;;;;5070676;28;20029;-54
2023/11/01 09:01:00;;;;;;;22.00;20.00;;;;;;;;;;5070716;28;20103;-51
2023/11/01 09:03:27;;;;;;;22.25;19.85;;;;;;;;;;5070856;28;20024;-49
2023/11/01 09:05:54;;;;;;;22.25;19.58;;;;;;;;;;5071160;28;20624;-49
2023/11/01 09:08:20;;;;;;;23.52;19.55;;;;;;;;;;5070731;28;20035;-52
2023/11/01 09:10:46;;;;;;;20.77;18.13;;;;;;;;;;5065078;28;20063;-50
2023/11/01 09:13:12;;;;;;;22.05;19.08;;;;;;;;;;5051025;28;20288;-54
2023/11/01 09:15:38;;;;;;;21.17;18.17;;;;;;;;;;5033343;28;20040;-55
2023/11/01 09:18:05;;;;;;;21.45;17.27;;;;;;;;;;5050477;28;20123;-52
2023/11/01 09:20:31;;;;;;;18.55;16.52;;;;;;;;;;5050185;28;20033;-51
2023/11/01 09:22:58;;;;;;;19.52;15.02;;;;;;;;;;5050567;28;20113;-51
2023/11/01 09:25:27;;;;;;;19.00;14.75;;;;;;;;;;5050697;28;20453;-52
2023/11/01 09:27:53;;;;;;;16.10;12.90;;;;;;;;;;5055786;28;20086;-53
2023/11/01 09:30:19;;;;;;;18.58;13.32;;;;;;;;;;5070133;28;20024;-52
2023/11/01 09:32:45;;;;;;;20.45;13.18;;;;;;;;;;5063103;28;20122;-54
2023/11/01 09:35:12;;;;;;;18.80;12.05;;;;;;;;;;5070324;28;20602;-52
2023/11/01 09:37:38;;;;;;;20.15;12.25;;;;;;;;;;5070092;28;20024;-51
2023/11/01 09:40:05;;;;;;;15.63;11.32;;;;;;;;;;5070159;28;20441;-53
2023/11/01 09:42:31;;;;;;;18.00;11.50;;;;;;;;;;5070311;28;20021;-57
2023/11/01 09:44:58;;;;;;;17.58;11.07;;;;;;;;;;5070097;28;20020;-54
2023/11/01 09:47:27;;;;;;;17.58;10.90;;;;;;;;;;5070067;28;20403;-56
2023/11/01 09:49:57;;;;;;;16.83;10.27;;;;;;;;;;5051638;28;20020;-56
2023/11/01 09:52:23;;;;;;;15.98;9.73;;;;;;;;;;5070029;28;20065;-56
2023/11/01 09:54:49;;;;;;;19.40;9.68;;;;;;;;;;5051327;28;20023;-56
2023/11/01 09:57:16;;;;;;;18.52;9.27;;;;;;;;;;5069939;28;20189;-55
2023/11/01 09:59:43;;;;;;;15.20;8.00;;;;;;;;;;5069636;28;20185;-55
2023/11/01 10:02:10;;;;;;;14.32;8.30;;;;;;;;;;5070066;28;20028;-57
2023/11/01 10:04:38;;;;;;;17.33;9.18;;;;;;;;;;5070017;28;20486;-56
2023/11/01 10:07:05;;;;;;;16.83;9.80;;;;;;;;;;5069726;28;20099;-57
2023/11/01 10:09:31;;;;;;;16.25;8.65;;;;;;;;;;5069053;28;20398;-53
2023/11/01 10:11:57;;;;;;;15.40;8.52;;;;;;;;;;5066900;28;20573;-59
2023/11/01 10:14:30;;;;;;;14.95;7.95;;;;;;;;;;5044819;28;20108;-57
2023/11/01 10:16:57;;;;;;;18.40;8.50;;;;;;;;;;5055145;28;20367;-58
2023/11/01 10:19:24;;;;;;;16.08;8.20;;;;;;;;;;5068658;28;20016;-55
2023/11/01 10:21:50;;;;;;;15.55;8.48;;;;;;;;;;5069238;28;20452;-58
2023/11/01 10:24:16;;;;;;;17.00;8.90;;;;;;;;;;5051021;28;20017;-54
2023/11/01 10:26:42;;;;;;;15.27;8.30;;;;;;;;;;5068711;28;20515;-55
2023/11/01 10:29:08;;;;;;;18.00;8.35;;;;;;;;;;5068384;28;20578;-57
2023/11/01 10:31:34;;;;;;;18.05;8.93;;;;;;;;;;5050932;28;20028;-55
2023/11/01 10:34:10;;;;;;;16.70;8.10;;;;;;;;;;5068992;28;20111;-57
2023/11/01 10:36:49;;;;;;;16.63;8.13;;;;;;;;;;5046821;28;20052;-56
2023/11/01 10:39:16;;;;;;;16.40;8.00;;;;;;;;;;5041136;28;20025;-60
2023/11/01 10:41:42;;;;;;;17.35;8.15;;;;;;;;;;5049150;28;20025;-55
2023/11/01 10:44:08;;;;;;;15.57;8.57;;;;;;;;;;5049107;28;20070;-53
2023/11/01 10:46:34;;;;;;;14.43;8.02;;;;;;;;;;5049039;28;20033;-55
2023/11/01 10:49:01;;;;;;;22.73;8.88;;;;;;;;;;5049409;28;20027;-58
2023/11/01 10:51:27;;;;;;;14.38;8.50;;;;;;;;;;5048951;28;20032;-53
2023/11/01 10:53:54;;;;;;;17.63;8.27;;;;;;;;;;5054073;28;20093;-55
2023/11/01 10:56:20;;;;;;;17.70;8.30;;;;;;;;;;5060397;28;20478;-56
2023/11/01 10:58:47;;;;;;;15.60;8.30;;;;;;;;;;5069152;28;20039;-53
2023/11/01 11:01:32;;;;;;;17.23;8.40;;;;;;;;;;5068454;28;20390;-57
2023/11/01 11:04:22;;;;;;;20.13;8.93;;;;;;;;;;5068879;28;20064;-57
2023/11/01 11:07:11;;;;;;;17.20;8.45;;;;;;;;;;5068482;28;20024;-57
2023/11/01 11:09:38;;;;;;;15.95;8.45;;;;;;;;;;5010137;28;20053;-58
2023/11/01 11:12:21;;;;;;;19.90;8.80;;;;;;;;;;5048679;28;20017;-55
2023/11/01 11:14:47;;;;;;;15.98;8.20;;;;;;;;;;5030582;28;20514;-58
2023/11/01 11:17:14;;;;;;;14.95;7.68;;;;;;;;;;5048685;28;20032;-56
2023/11/01 11:19:58;;;;;;;17.48;7.90;;;;;;;;;;5049379;28;20086;-56
2023/11/01 11:22:24;;;;;;;14.73;8.00;;;;;;;;;;5031511;28;20096;-53
2023/11/01 11:24:55;;;;;;;16.83;8.52;;;;;;;;;;5061641;28;20443;-53
2023/11/01 11:27:48;;;;;;;14.32;7.88;;;;;;;;;;5068311;28;20028;-55
2023/11/01 11:30:14;;;;;;;15.32;7.93;;;;;;;;;;5041096;28;20037;-55
2023/11/01 11:32:40;;;;;;;14.30;8.35;;;;;;;;;;5053624;28;20089;-60
2023/11/01 11:35:18;;;;;;;16.70;8.10;;;;;;;;;;5048030;28;20049;-60
2023/11/01 11:37:44;;;;;;;18.10;8.15;;;;;;;;;;5041090;28;20040;-59
2023/11/01 11:40:10;;;;;;;16.15;8.60;;;;;;;;;;5051363;28;20213;-57
2023/11/01 11:42:44;;;;;;;14.30;7.60;;;;;;;;;;5052175;28;20111;-55
2023/11/01 11:45:14;;;;;;;14.30;7.65;;;;;;;;;;5052188;28;20025;-58
2023/11/01 11:47:40;;;;;;;15.82;7.70;;;;;;;;;;5033982;28;20494;-60
2023/11/01 11:50:07;;;;;;;16.90;8.40;;;;;;;;;;5053138;28;20032;-57
2023/11/01 11:52:33;;;;;;;14.75;8.63;;;;;;;;;;5052260;28;20104;-57
2023/11/01 11:55:00;;;;;;;14.38;8.05;;;;;;;;;;5066220;28;20051;-58
2023/11/01 11:57:27;;;;;;;16.23;8.68;;;;;;;;;;5071666;28;20057;-60
2023/11/01 12:00:20;;;;;;;15.02;8.02;;;;;;;;;;5071715;28;20021;-56
2023/11/01 12:02:49;;;;;;;14.40;8.20;;;;;;;;;;5068220;28;20033;-60
2023/11/01 12:05:15;;;;;;;17.70;9.30;;;;;;;;;;5071704;28;20074;-57
2023/11/01 12:07:43;;;;;;;15.13;8.98;;;;;;;;;;5071567;28;20426;-60
2023/11/01 12:10:10;;;;;;;16.48;8.98;;;;;;;;;;5071444;28;20025;-58
2023/11/01 12:12:36;;;;;;;18.98;9.10;;;;;;;;;;5071416;28;20021;-58
2023/11/01 12:15:03;;;;;;;15.40;9.07;;;;;;;;;;5071532;28;20060;-59
2023/11/01 12:17:29;;;;;;;18.05;9.13;;;;;;;;;;5071555;28;20017;-57
2023/11/01 12:19:56;;;;;;;16.15;9.00;;;;;;;;;;5071191;28;20417;-57
2023/11/01 12:22:22;;;;;;;17.35;9.57;;;;;;;;;;5071444;28;20056;-57
2023/11/01 12:24:49;;;;;;;15.65;9.45;;;;;;;;;;5058678;28;20108;-60
2023/11/01 12:27:18;;;;;;;15.15;9.40;;;;;;;;;;5051429;28;20387;-58
2023/11/01 12:29:45;;;;;;;16.83;9.20;;;;;;;;;;5051478;28;20050;-58
2023/11/01 12:32:11;;;;;;;18.67;10.65;;;;;;;;;;5058971;28;20024;-59
2023/11/01 12:34:38;;;;;;;18.17;9.50;;;;;;;;;;4706202;28;10000159;-60
2023/11/01 12:37:04;;;;;;;15.15;9.23;;;;;;;;;;5051922;28;20482;-60
2023/11/01 12:39:30;;;;;;;15.88;9.73;;;;;;;;;;5055635;28;20028;-60
2023/11/01 12:41:56;;;;;;;17.30;10.75;;;;;;;;;;5050416;28;20029;-59
2023/11/01 12:44:25;;;;;;;17.05;9.88;;;;;;;;;;5050406;28;20393;-58
2023/11/01 12:46:53;;;;;;;15.43;9.95;;;;;;;;;;5050078;28;20024;-59
2023/11/01 12:49:19;;;;;;;16.65;9.80;;;;;;;;;;5068971;28;20028;-59
2023/11/01 12:51:45;;;;;;;15.35;9.60;;;;;;;;;;5067156;28;20027;-58
2023/11/01 12:54:11;;;;;;;17.80;9.60;;;;;;;;;;4700797;28;9999676;-55
2023/11/01 12:56:37;;;;;;;16.23;9.23;;;;;;;;;;5067382;28;20017;-58
2023/11/01 12:59:03;;;;;;;16.38;9.40;;;;;;;;;;5068023;28;20028;-56
2023/11/01 13:01:29;;;;;;;14.68;8.80;;;;;;;;;;5067917;28;20055;-57
2023/11/01 13:03:55;;;;;;;15.20;8.82;;;;;;;;;;5068042;28;20074;-58
2023/11/01 13:06:21;;;;;;;15.82;8.80;;;;;;;;;;5067959;28;20028;-56
2023/11/01 13:08:47;;;;;;;17.08;8.98;;;;;;;;;;5066396;28;20526;-57
2023/11/01 13:11:13;;;;;;;15.10;9.07;;;;;;;;;;5047639;28;20025;-57
2023/11/01 13:13:39;;;;;;;15.52;8.93;;;;;;;;;;5047670;28;20071;-58
2023/11/01 13:16:05;;;;;;;14.50;8.68;;;;;;;;;;5048460;28;20088;-57
2023/11/01 13:18:34;;;;;;;16.85;8.98;;;;;;;;;;5048906;28;20041;-57
2023/11/01 13:21:00;;;;;;;18.42;10.30;;;;;;;;;;5056336;28;20090;-57
2023/11/01 13:23:26;;;;;;;15.02;8.95;;;;;;;;;;5070619;28;20104;-55
2023/11/01 13:25:52;;;;;;;15.63;9.30;;;;;;;;;;5057503;28;20017;-55
2023/11/01 13:28:18;;;;;;;17.30;10.32;;;;;;;;;;5032689;28;20037;-55
2023/11/01 13:30:44;;;;;;;16.80;9.45;;;;;;;;;;4700594;28;10000504;-54
2023/11/01 13:33:10;;;;;;;18.65;9.10;;;;;;;;;;5063647;28;20020;-58
2023/11/01 13:35:36;;;;;;;18.88;10.63;;;;;;;;;;5067526;28;20024;-57
2023/11/01 13:38:02;;;;;;;18.00;10.18;;;;;;;;;;5049730;28;20029;-59
2023/11/01 13:40:28;;;;;;;18.17;10.68;;;;;;;;;;5048533;28;20021;-57
2023/11/01 13:42:54;;;;;;;15.55;9.13;;;;;;;;;;5054233;28;20016;-54
2023/11/01 13:45:20;;;;;;;14.95;9.27;;;;;;;;;;5051462;28;20017;-57
2023/11/01 13:47:46;;;;;;;16.08;9.60;;;;;;;;;;5069232;28;20444;-57
2023/11/01 13:50:12;;;;;;;15.68;9.10;;;;;;;;;;5053321;28;20048;-53
2023/11/01 13:52:38;;;;;;;15.13;9.20;;;;;;;;;;5049264;28;20021;-57
2023/11/01 13:55:04;;;;;;;16.58;9.50;;;;;;;;;;5065655;28;20020;-56
2023/11/01 13:57:30;;;;;;;20.60;9.40;;;;;;;;;;5069661;28;20028;-58
2023/11/01 13:59:56;;;;;;;15.48;9.90;;;;;;;;;;5068884;28;20078;-59
2023/11/01 14:02:22;;;;;;;15.55;9.40;;;;;;;;;;5069057;28;20069;-58
2023/11/01 14:04:48;;;;;;;18.00;9.40;;;;;;;;;;5069354;28;20062;-57
2023/11/01 14:07:14;;;;;;;16.23;9.73;;;;;;;;;;5069856;28;20037;-59
2023/11/01 14:09:40;;;;;;;19.15;10.63;;;;;;;;;;5069546;28;20421;-56
2023/11/01 14:12:06;;;;;;;17.10;9.70;;;;;;;;;;5052829;28;20024;-54
2023/11/01 14:14:32;;;;;;;16.70;9.63;;;;;;;;;;5050039;28;20028;-56
2023/11/01 14:16:58;;;;;;;16.02;9.60;;;;;;;;;;5049823;28;20025;-55
2023/11/01 14:19:24;;;;;;;18.40;8.95;;;;;;;;;;5049731;28;20032;-58